sensor_id;sensor_type;location;lat;lon;timestamp;P1;durP1;ratioP1;P2;durP2;ratioP2
79399;SDS011;68856;45.586;10.264;2023-04-25T00:00:56;1.17;;;0.77;;
79399;SDS011;68856;45.586;10.264;2023-04-25T00:03:22;0.55;;;0.55;;
79399;SDS011;68856;45.586;10.264;2023-04-25T00:05:50;0.63;;;0.60;;
79399;SDS011;68856;45.586;10.264;2023-04-25T00:08:16;0.70;;;0.70;;
79399;SDS011;68856;45.586;10.264;2023-04-25T00:10:43;0.60;;;0.60;;
79399;SDS011;68856;45.586;10.264;2023-04-25T00:13:09;0.95;;;0.70;;
79399;SDS011;68856;45.586;10.264;2023-04-25T00:15:36;0.90;;;0.90;;
79399;SDS011;68856;45.586;10.264;2023-04-25T00:18:03;0.63;;;0.60;;
79399;SDS011;68856;45.586;10.264;2023-04-25T00:20:30;0.70;;;0.70;;
79399;SDS011;68856;45.586;10.264;2023-04-25T00:22:57;1.20;;;1.08;;
79399;SDS011;68856;45.586;10.264;2023-04-25T00:25:23;1.92;;;0.95;;
79399;SDS011;68856;45.586;10.264;2023-04-25T00:27:49;1.05;;;0.95;;
79399;SDS011;68856;45.586;10.264;2023-04-25T00:30:15;1.15;;;1.05;;
79399;SDS011;68856;45.586;10.264;2023-04-25T00:32:42;1.58;;;1.13;;
79399;SDS011;68856;45.586;10.264;2023-04-25T00:35:09;1.42;;;1.33;;
79399;SDS011;68856;45.586;10.264;2023-04-25T00:37:35;1.15;;;0.98;;
79399;SDS011;68856;45.586;10.264;2023-04-25T00:40:02;1.30;;;1.17;;
79399;SDS011;68856;45.586;10.264;2023-04-25T00:42:31;1.60;;;1.50;;
79399;SDS011;68856;45.586;10.264;2023-04-25T00:44:58;2.28;;;1.52;;
79399;SDS011;68856;45.586;10.264;2023-04-25T00:47:25;2.38;;;1.48;;
79399;SDS011;68856;45.586;10.264;2023-04-25T00:49:53;1.48;;;1.38;;
79399;SDS011;68856;45.586;10.264;2023-04-25T00:52:19;1.60;;;1.42;;
79399;SDS011;68856;45.586;10.264;2023-04-25T00:54:46;1.70;;;1.42;;
79399;SDS011;68856;45.586;10.264;2023-04-25T00:57:12;1.20;;;1.05;;
79399;SDS011;68856;45.586;10.264;2023-04-25T00:59:38;1.60;;;1.50;;
79399;SDS011;68856;45.586;10.264;2023-04-25T01:02:10;3.25;;;1.80;;
79399;SDS011;68856;45.586;10.264;2023-04-25T01:04:37;1.65;;;1.55;;
79399;SDS011;68856;45.586;10.264;2023-04-25T01:07:03;1.55;;;1.40;;
79399;SDS011;68856;45.586;10.264;2023-04-25T01:09:30;1.27;;;1.17;;
79399;SDS011;68856;45.586;10.264;2023-04-25T01:11:59;1.08;;;1.05;;
79399;SDS011;68856;45.586;10.264;2023-04-25T01:14:26;0.73;;;0.73;;
79399;SDS011;68856;45.586;10.264;2023-04-25T01:16:52;1.38;;;0.77;;
79399;SDS011;68856;45.586;10.264;2023-04-25T01:19:19;1.05;;;0.95;;
79399;SDS011;68856;45.586;10.264;2023-04-25T01:21:45;1.58;;;0.98;;
79399;SDS011;68856;45.586;10.264;2023-04-25T01:24:12;1.38;;;0.95;;
79399;SDS011;68856;45.586;10.264;2023-04-25T01:26:39;0.80;;;0.80;;
79399;SDS011;68856;45.586;10.264;2023-04-25T01:29:09;1.40;;;1.30;;
79399;SDS011;68856;45.586;10.264;2023-04-25T01:31:36;1.42;;;1.17;;
79399;SDS011;68856;45.586;10.264;2023-04-25T01:34:02;1.30;;;1.20;;
79399;SDS011;68856;45.586;10.264;2023-04-25T01:36:29;1.48;;;0.90;;
79399;SDS011;68856;45.586;10.264;2023-04-25T01:38:56;1.35;;;0.93;;
79399;SDS011;68856;45.586;10.264;2023-04-25T01:41:22;1.50;;;1.40;;
79399;SDS011;68856;45.586;10.264;2023-04-25T01:43:49;3.25;;;1.88;;
79399;SDS011;68856;45.586;10.264;2023-04-25T01:46:16;1.92;;;1.63;;
79399;SDS011;68856;45.586;10.264;2023-04-25T01:48:42;1.95;;;1.75;;
79399;SDS011;68856;45.586;10.264;2023-04-25T01:51:08;1.25;;;1.15;;
79399;SDS011;68856;45.586;10.264;2023-04-25T01:53:36;2.05;;;1.85;;
79399;SDS011;68856;45.586;10.264;2023-04-25T01:56:03;1.83;;;1.73;;
79399;SDS011;68856;45.586;10.264;2023-04-25T01:58:30;1.95;;;1.70;;
79399;SDS011;68856;45.586;10.264;2023-04-25T02:00:56;1.80;;;1.50;;
79399;SDS011;68856;45.586;10.264;2023-04-25T02:03:22;3.80;;;1.65;;
79399;SDS011;68856;45.586;10.264;2023-04-25T02:05:49;1.23;;;1.15;;
79399;SDS011;68856;45.586;10.264;2023-04-25T02:08:15;1.85;;;1.60;;
79399;SDS011;68856;45.586;10.264;2023-04-25T02:10:42;1.92;;;1.60;;
79399;SDS011;68856;45.586;10.264;2023-04-25T02:13:09;1.73;;;1.60;;
79399;SDS011;68856;45.586;10.264;2023-04-25T02:15:35;1.65;;;1.55;;
79399;SDS011;68856;45.586;10.264;2023-04-25T02:18:01;5.88;;;2.13;;
79399;SDS011;68856;45.586;10.264;2023-04-25T02:20:29;1.48;;;1.35;;
79399;SDS011;68856;45.586;10.264;2023-04-25T02:22:56;2.83;;;1.40;;
79399;SDS011;68856;45.586;10.264;2023-04-25T02:25:22;1.63;;;1.38;;
79399;SDS011;68856;45.586;10.264;2023-04-25T02:27:49;1.67;;;1.35;;
79399;SDS011;68856;45.586;10.264;2023-04-25T02:30:16;1.75;;;1.65;;
79399;SDS011;68856;45.586;10.264;2023-04-25T02:32:42;1.60;;;1.50;;
79399;SDS011;68856;45.586;10.264;2023-04-25T02:35:09;1.50;;;1.40;;
79399;SDS011;68856;45.586;10.264;2023-04-25T02:37:36;2.40;;;1.80;;
79399;SDS011;68856;45.586;10.264;2023-04-25T02:40:03;2.63;;;1.90;;
79399;SDS011;68856;45.586;10.264;2023-04-25T02:42:30;1.38;;;1.27;;
79399;SDS011;68856;45.586;10.264;2023-04-25T02:44:56;2.97;;;1.70;;
79399;SDS011;68856;45.586;10.264;2023-04-25T02:47:23;2.50;;;1.88;;
79399;SDS011;68856;45.586;10.264;2023-04-25T02:49:49;1.38;;;1.27;;
79399;SDS011;68856;45.586;10.264;2023-04-25T02:52:15;2.05;;;1.70;;
79399;SDS011;68856;45.586;10.264;2023-04-25T02:54:41;1.83;;;1.65;;
79399;SDS011;68856;45.586;10.264;2023-04-25T02:57:08;2.08;;;1.88;;
79399;SDS011;68856;45.586;10.264;2023-04-25T02:59:34;4.35;;;2.50;;
79399;SDS011;68856;45.586;10.264;2023-04-25T03:02:00;1.88;;;1.77;;
79399;SDS011;68856;45.586;10.264;2023-04-25T03:04:27;3.03;;;1.95;;
79399;SDS011;68856;45.586;10.264;2023-04-25T03:06:53;2.35;;;2.10;;
79399;SDS011;68856;45.586;10.264;2023-04-25T03:09:20;2.10;;;1.90;;
79399;SDS011;68856;45.586;10.264;2023-04-25T03:11:46;2.22;;;2.03;;
79399;SDS011;68856;45.586;10.264;2023-04-25T03:14:12;2.75;;;2.20;;
79399;SDS011;68856;45.586;10.264;2023-04-25T03:16:39;2.13;;;1.63;;
79399;SDS011;68856;45.586;10.264;2023-04-25T03:19:05;2.15;;;1.75;;
79399;SDS011;68856;45.586;10.264;2023-04-25T03:21:32;1.55;;;1.30;;
79399;SDS011;68856;45.586;10.264;2023-04-25T03:24:00;2.53;;;1.88;;
79399;SDS011;68856;45.586;10.264;2023-04-25T03:26:28;1.80;;;1.60;;
79399;SDS011;68856;45.586;10.264;2023-04-25T03:28:54;1.83;;;1.45;;
79399;SDS011;68856;45.586;10.264;2023-04-25T03:31:20;3.42;;;1.75;;
79399;SDS011;68856;45.586;10.264;2023-04-25T03:33:47;1.42;;;1.33;;
79399;SDS011;68856;45.586;10.264;2023-04-25T03:36:13;2.88;;;1.02;;
79399;SDS011;68856;45.586;10.264;2023-04-25T03:38:40;1.67;;;1.58;;
79399;SDS011;68856;45.586;10.264;2023-04-25T03:41:09;1.50;;;1.35;;
79399;SDS011;68856;45.586;10.264;2023-04-25T03:43:35;2.22;;;2.00;;
79399;SDS011;68856;45.586;10.264;2023-04-25T03:46:01;1.83;;;1.70;;
79399;SDS011;68856;45.586;10.264;2023-04-25T03:48:28;3.33;;;2.17;;
79399;SDS011;68856;45.586;10.264;2023-04-25T03:50:54;3.58;;;2.38;;
79399;SDS011;68856;45.586;10.264;2023-04-25T03:53:20;5.05;;;1.80;;
79399;SDS011;68856;45.586;10.264;2023-04-25T03:55:47;2.38;;;1.98;;
79399;SDS011;68856;45.586;10.264;2023-04-25T03:58:13;2.58;;;1.90;;
79399;SDS011;68856;45.586;10.264;2023-04-25T04:00:39;2.25;;;1.92;;
79399;SDS011;68856;45.586;10.264;2023-04-25T04:03:06;2.20;;;1.65;;
79399;SDS011;68856;45.586;10.264;2023-04-25T04:05:32;2.42;;;2.05;;
79399;SDS011;68856;45.586;10.264;2023-04-25T04:07:58;2.78;;;1.80;;
79399;SDS011;68856;45.586;10.264;2023-04-25T04:10:24;1.92;;;1.70;;
79399;SDS011;68856;45.586;10.264;2023-04-25T04:12:51;1.90;;;1.75;;
79399;SDS011;68856;45.586;10.264;2023-04-25T04:15:17;2.45;;;2.03;;
79399;SDS011;68856;45.586;10.264;2023-04-25T04:17:43;2.25;;;2.10;;
79399;SDS011;68856;45.586;10.264;2023-04-25T04:20:10;3.35;;;2.20;;
79399;SDS011;68856;45.586;10.264;2023-04-25T04:22:36;4.03;;;2.88;;
79399;SDS011;68856;45.586;10.264;2023-04-25T04:25:03;2.47;;;2.00;;
79399;SDS011;68856;45.586;10.264;2023-04-25T04:27:30;2.40;;;2.05;;
79399;SDS011;68856;45.586;10.264;2023-04-25T04:29:57;2.97;;;2.30;;
79399;SDS011;68856;45.586;10.264;2023-04-25T04:32:23;2.10;;;1.90;;
79399;SDS011;68856;45.586;10.264;2023-04-25T04:34:50;2.00;;;1.58;;
79399;SDS011;68856;45.586;10.264;2023-04-25T04:37:17;1.65;;;1.10;;
79399;SDS011;68856;45.586;10.264;2023-04-25T04:39:43;1.30;;;1.20;;
79399;SDS011;68856;45.586;10.264;2023-04-25T04:42:10;1.38;;;1.20;;
79399;SDS011;68856;45.586;10.264;2023-04-25T04:44:36;2.40;;;1.27;;
79399;SDS011;68856;45.586;10.264;2023-04-25T04:47:04;0.93;;;0.90;;
79399;SDS011;68856;45.586;10.264;2023-04-25T04:49:31;1.10;;;1.00;;
79399;SDS011;68856;45.586;10.264;2023-04-25T04:51:57;0.68;;;0.68;;
79399;SDS011;68856;45.586;10.264;2023-04-25T04:54:25;0.55;;;0.47;;
79399;SDS011;68856;45.586;10.264;2023-04-25T04:56:52;0.52;;;0.50;;
79399;SDS011;68856;45.586;10.264;2023-04-25T04:59:18;0.75;;;0.47;;
79399;SDS011;68856;45.586;10.264;2023-04-25T05:01:44;0.47;;;0.47;;
79399;SDS011;68856;45.586;10.264;2023-04-25T05:04:11;0.30;;;0.30;;
79399;SDS011;68856;45.586;10.264;2023-04-25T05:06:38;0.20;;;0.20;;
79399;SDS011;68856;45.586;10.264;2023-04-25T05:09:04;0.30;;;0.30;;
79399;SDS011;68856;45.586;10.264;2023-04-25T05:11:31;0.80;;;0.80;;
79399;SDS011;68856;45.586;10.264;2023-04-25T05:13:57;0.88;;;0.88;;
79399;SDS011;68856;45.586;10.264;2023-04-25T05:16:23;0.68;;;0.68;;
79399;SDS011;68856;45.586;10.264;2023-04-25T05:18:50;0.50;;;0.50;;
79399;SDS011;68856;45.586;10.264;2023-04-25T05:21:17;0.50;;;0.50;;
79399;SDS011;68856;45.586;10.264;2023-04-25T05:23:43;1.10;;;0.45;;
79399;SDS011;68856;45.586;10.264;2023-04-25T05:26:09;0.68;;;0.50;;
79399;SDS011;68856;45.586;10.264;2023-04-25T05:28:39;0.40;;;0.40;;
79399;SDS011;68856;45.586;10.264;2023-04-25T05:31:06;0.45;;;0.45;;
79399;SDS011;68856;45.586;10.264;2023-04-25T05:33:34;0.28;;;0.28;;
79399;SDS011;68856;45.586;10.264;2023-04-25T05:36:01;0.93;;;0.30;;
79399;SDS011;68856;45.586;10.264;2023-04-25T05:38:27;0.40;;;0.40;;
79399;SDS011;68856;45.586;10.264;2023-04-25T05:40:53;0.60;;;0.60;;
79399;SDS011;68856;45.586;10.264;2023-04-25T05:43:20;0.45;;;0.45;;
79399;SDS011;68856;45.586;10.264;2023-04-25T05:45:46;0.63;;;0.63;;
79399;SDS011;68856;45.586;10.264;2023-04-25T05:48:12;0.50;;;0.50;;
79399;SDS011;68856;45.586;10.264;2023-04-25T05:50:39;0.60;;;0.60;;
79399;SDS011;68856;45.586;10.264;2023-04-25T05:53:05;0.40;;;0.40;;
79399;SDS011;68856;45.586;10.264;2023-04-25T05:55:31;0.30;;;0.30;;
79399;SDS011;68856;45.586;10.264;2023-04-25T05:57:57;0.45;;;0.45;;
79399;SDS011;68856;45.586;10.264;2023-04-25T06:00:24;0.70;;;0.70;;
79399;SDS011;68856;45.586;10.264;2023-04-25T06:02:50;0.70;;;0.70;;
79399;SDS011;68856;45.586;10.264;2023-04-25T06:05:16;1.27;;;0.68;;
79399;SDS011;68856;45.586;10.264;2023-04-25T06:07:42;0.30;;;0.30;;
79399;SDS011;68856;45.586;10.264;2023-04-25T06:10:09;0.82;;;0.82;;
79399;SDS011;68856;45.586;10.264;2023-04-25T06:12:35;1.08;;;0.55;;
79399;SDS011;68856;45.586;10.264;2023-04-25T06:15:03;0.55;;;0.55;;
79399;SDS011;68856;45.586;10.264;2023-04-25T06:17:30;1.15;;;0.55;;
79399;SDS011;68856;45.586;10.264;2023-04-25T06:19:56;0.47;;;0.47;;
79399;SDS011;68856;45.586;10.264;2023-04-25T06:22:23;0.70;;;0.70;;
79399;SDS011;68856;45.586;10.264;2023-04-25T06:24:49;1.42;;;0.60;;
79399;SDS011;68856;45.586;10.264;2023-04-25T06:27:15;0.50;;;0.50;;
79399;SDS011;68856;45.586;10.264;2023-04-25T06:29:41;0.95;;;0.90;;
79399;SDS011;68856;45.586;10.264;2023-04-25T06:32:07;0.60;;;0.60;;
79399;SDS011;68856;45.586;10.264;2023-04-25T06:34:34;0.60;;;0.60;;
79399;SDS011;68856;45.586;10.264;2023-04-25T06:37:00;0.70;;;0.45;;
79399;SDS011;68856;45.586;10.264;2023-04-25T06:39:26;0.52;;;0.52;;
79399;SDS011;68856;45.586;10.264;2023-04-25T06:41:53;0.80;;;0.60;;
79399;SDS011;68856;45.586;10.264;2023-04-25T06:44:19;0.68;;;0.60;;
79399;SDS011;68856;45.586;10.264;2023-04-25T06:46:48;0.70;;;0.70;;
79399;SDS011;68856;45.586;10.264;2023-04-25T06:49:14;0.50;;;0.40;;
79399;SDS011;68856;45.586;10.264;2023-04-25T06:51:40;0.30;;;0.30;;
79399;SDS011;68856;45.586;10.264;2023-04-25T06:54:06;0.75;;;0.60;;
79399;SDS011;68856;45.586;10.264;2023-04-25T06:56:33;1.83;;;1.73;;
79399;SDS011;68856;45.586;10.264;2023-04-25T06:58:59;0.73;;;0.73;;
79399;SDS011;68856;45.586;10.264;2023-04-25T07:01:25;0.57;;;0.57;;
79399;SDS011;68856;45.586;10.264;2023-04-25T07:03:52;0.60;;;0.60;;
79399;SDS011;68856;45.586;10.264;2023-04-25T07:06:18;0.68;;;0.68;;
79399;SDS011;68856;45.586;10.264;2023-04-25T07:08:44;0.70;;;0.70;;
79399;SDS011;68856;45.586;10.264;2023-04-25T07:11:10;0.68;;;0.68;;
79399;SDS011;68856;45.586;10.264;2023-04-25T07:13:37;0.57;;;0.57;;
79399;SDS011;68856;45.586;10.264;2023-04-25T07:16:03;0.90;;;0.88;;
79399;SDS011;68856;45.586;10.264;2023-04-25T07:18:29;0.70;;;0.70;;
79399;SDS011;68856;45.586;10.264;2023-04-25T07:20:56;0.68;;;0.68;;
79399;SDS011;68856;45.586;10.264;2023-04-25T07:23:22;0.70;;;0.70;;
79399;SDS011;68856;45.586;10.264;2023-04-25T07:25:48;0.70;;;0.70;;
79399;SDS011;68856;45.586;10.264;2023-04-25T07:28:15;0.82;;;0.57;;
79399;SDS011;68856;45.586;10.264;2023-04-25T07:30:41;1.05;;;0.70;;
79399;SDS011;68856;45.586;10.264;2023-04-25T07:33:07;0.90;;;0.90;;
79399;SDS011;68856;45.586;10.264;2023-04-25T07:35:33;0.80;;;0.80;;
79399;SDS011;68856;45.586;10.264;2023-04-25T07:38:00;0.60;;;0.60;;
79399;SDS011;68856;45.586;10.264;2023-04-25T07:40:27;1.63;;;0.68;;
79399;SDS011;68856;45.586;10.264;2023-04-25T07:42:53;0.70;;;0.70;;
79399;SDS011;68856;45.586;10.264;2023-04-25T07:45:19;0.65;;;0.65;;
79399;SDS011;68856;45.586;10.264;2023-04-25T07:47:46;0.90;;;0.82;;
79399;SDS011;68856;45.586;10.264;2023-04-25T07:50:12;1.00;;;0.88;;
79399;SDS011;68856;45.586;10.264;2023-04-25T07:52:38;0.70;;;0.70;;
79399;SDS011;68856;45.586;10.264;2023-04-25T07:55:05;0.55;;;0.55;;
79399;SDS011;68856;45.586;10.264;2023-04-25T07:57:31;0.60;;;0.52;;
79399;SDS011;68856;45.586;10.264;2023-04-25T07:59:57;0.90;;;0.90;;
79399;SDS011;68856;45.586;10.264;2023-04-25T08:02:23;0.95;;;0.68;;
79399;SDS011;68856;45.586;10.264;2023-04-25T08:04:53;0.63;;;0.63;;
79399;SDS011;68856;45.586;10.264;2023-04-25T08:07:19;0.60;;;0.60;;
79399;SDS011;68856;45.586;10.264;2023-04-25T08:09:46;1.00;;;0.80;;
79399;SDS011;68856;45.586;10.264;2023-04-25T08:12:12;1.05;;;1.05;;
79399;SDS011;68856;45.586;10.264;2023-04-25T08:14:38;1.00;;;0.90;;
79399;SDS011;68856;45.586;10.264;2023-04-25T08:17:04;1.33;;;1.17;;
79399;SDS011;68856;45.586;10.264;2023-04-25T08:19:31;0.90;;;0.90;;
79399;SDS011;68856;45.586;10.264;2023-04-25T08:21:57;0.70;;;0.70;;
79399;SDS011;68856;45.586;10.264;2023-04-25T08:24:23;0.82;;;0.77;;
79399;SDS011;68856;45.586;10.264;2023-04-25T08:26:50;1.25;;;1.15;;
79399;SDS011;68856;45.586;10.264;2023-04-25T08:29:17;1.20;;;1.10;;
79399;SDS011;68856;45.586;10.264;2023-04-25T08:31:43;1.65;;;1.20;;
79399;SDS011;68856;45.586;10.264;2023-04-25T08:34:09;0.98;;;0.98;;
79399;SDS011;68856;45.586;10.264;2023-04-25T08:36:36;0.82;;;0.82;;
79399;SDS011;68856;45.586;10.264;2023-04-25T08:39:02;1.13;;;0.90;;
79399;SDS011;68856;45.586;10.264;2023-04-25T08:41:28;0.63;;;0.63;;
79399;SDS011;68856;45.586;10.264;2023-04-25T08:43:55;1.17;;;0.82;;
79399;SDS011;68856;45.586;10.264;2023-04-25T08:46:25;1.20;;;1.08;;
79399;SDS011;68856;45.586;10.264;2023-04-25T08:48:52;0.82;;;0.82;;
79399;SDS011;68856;45.586;10.264;2023-04-25T08:51:21;1.40;;;1.30;;
79399;SDS011;68856;45.586;10.264;2023-04-25T08:53:50;1.63;;;1.10;;
79399;SDS011;68856;45.586;10.264;2023-04-25T08:56:17;0.88;;;0.88;;
79399;SDS011;68856;45.586;10.264;2023-04-25T08:58:50;0.80;;;0.73;;
79399;SDS011;68856;45.586;10.264;2023-04-25T09:01:17;1.08;;;1.08;;
79399;SDS011;68856;45.586;10.264;2023-04-25T09:03:44;0.98;;;0.88;;
79399;SDS011;68856;45.586;10.264;2023-04-25T09:06:12;1.00;;;1.00;;
79399;SDS011;68856;45.586;10.264;2023-04-25T09:08:39;0.80;;;0.80;;
79399;SDS011;68856;45.586;10.264;2023-04-25T09:11:06;1.33;;;1.23;;
79399;SDS011;68856;45.586;10.264;2023-04-25T09:13:32;1.50;;;1.40;;
79399;SDS011;68856;45.586;10.264;2023-04-25T09:15:59;1.10;;;1.00;;
79399;SDS011;68856;45.586;10.264;2023-04-25T09:18:26;1.48;;;1.35;;
79399;SDS011;68856;45.586;10.264;2023-04-25T09:20:54;2.65;;;1.48;;
79399;SDS011;68856;45.586;10.264;2023-04-25T09:23:22;1.30;;;1.20;;
79399;SDS011;68856;45.586;10.264;2023-04-25T09:25:50;2.05;;;1.42;;
79399;SDS011;68856;45.586;10.264;2023-04-25T09:28:24;1.17;;;1.08;;
79399;SDS011;68856;45.586;10.264;2023-04-25T09:30:54;1.52;;;1.40;;
79399;SDS011;68856;45.586;10.264;2023-04-25T09:33:26;1.00;;;0.90;;
79399;SDS011;68856;45.586;10.264;2023-04-25T09:35:55;1.30;;;1.00;;
79399;SDS011;68856;45.586;10.264;2023-04-25T09:38:29;2.28;;;1.30;;
79399;SDS011;68856;45.586;10.264;2023-04-25T09:40:57;1.33;;;0.90;;
79399;SDS011;68856;45.586;10.264;2023-04-25T09:43:25;1.30;;;1.20;;
79399;SDS011;68856;45.586;10.264;2023-04-25T09:45:53;1.20;;;1.10;;
79399;SDS011;68856;45.586;10.264;2023-04-25T09:48:22;1.13;;;1.10;;
79399;SDS011;68856;45.586;10.264;2023-04-25T09:53:35;0.98;;;0.98;;
79399;SDS011;68856;45.586;10.264;2023-04-25T09:56:03;1.20;;;1.10;;
79399;SDS011;68856;45.586;10.264;2023-04-25T09:58:31;4.30;;;1.20;;
79399;SDS011;68856;45.586;10.264;2023-04-25T10:00:59;1.73;;;1.00;;
79399;SDS011;68856;45.586;10.264;2023-04-25T10:03:31;0.98;;;0.90;;
79399;SDS011;68856;45.586;10.264;2023-04-25T10:05:59;1.45;;;1.23;;
79399;SDS011;68856;45.586;10.264;2023-04-25T10:08:35;0.90;;;0.90;;
79399;SDS011;68856;45.586;10.264;2023-04-25T10:11:03;1.17;;;0.90;;
79399;SDS011;68856;45.586;10.264;2023-04-25T10:13:32;1.25;;;1.15;;
79399;SDS011;68856;45.586;10.264;2023-04-25T10:16:00;0.90;;;0.88;;
79399;SDS011;68856;45.586;10.264;2023-04-25T10:18:28;1.38;;;1.00;;
79399;SDS011;68856;45.586;10.264;2023-04-25T10:20:56;1.27;;;0.85;;
79399;SDS011;68856;45.586;10.264;2023-04-25T10:23:25;0.90;;;0.90;;
79399;SDS011;68856;45.586;10.264;2023-04-25T10:25:52;1.75;;;0.88;;
79399;SDS011;68856;45.586;10.264;2023-04-25T10:28:19;0.98;;;0.88;;
79399;SDS011;68856;45.586;10.264;2023-04-25T10:30:58;1.00;;;1.00;;
79399;SDS011;68856;45.586;10.264;2023-04-25T10:33:30;0.88;;;0.88;;
79399;SDS011;68856;45.586;10.264;2023-04-25T10:36:14;0.60;;;0.60;;
79399;SDS011;68856;45.586;10.264;2023-04-25T10:38:47;1.05;;;1.00;;
79399;SDS011;68856;45.586;10.264;2023-04-25T10:41:18;3.30;;;1.02;;
79399;SDS011;68856;45.586;10.264;2023-04-25T10:43:48;1.63;;;1.10;;
79399;SDS011;68856;45.586;10.264;2023-04-25T10:48:52;1.63;;;1.52;;
79399;SDS011;68856;45.586;10.264;2023-04-25T10:51:21;1.48;;;1.20;;
79399;SDS011;68856;45.586;10.264;2023-04-25T10:56:27;1.00;;;0.80;;
79399;SDS011;68856;45.586;10.264;2023-04-25T10:59:16;4.82;;;2.53;;
79399;SDS011;68856;45.586;10.264;2023-04-25T11:01:44;1.42;;;1.33;;
79399;SDS011;68856;45.586;10.264;2023-04-25T11:04:30;0.90;;;0.82;;
79399;SDS011;68856;45.586;10.264;2023-04-25T11:07:18;0.85;;;0.85;;
79399;SDS011;68856;45.586;10.264;2023-04-25T11:10:02;0.95;;;0.88;;
79399;SDS011;68856;45.586;10.264;2023-04-25T11:12:30;0.90;;;0.90;;
79399;SDS011;68856;45.586;10.264;2023-04-25T11:15:06;1.00;;;0.90;;
79399;SDS011;68856;45.586;10.264;2023-04-25T11:17:33;1.48;;;1.20;;
79399;SDS011;68856;45.586;10.264;2023-04-25T11:19:59;0.80;;;0.80;;
79399;SDS011;68856;45.586;10.264;2023-04-25T11:22:26;0.70;;;0.70;;
79399;SDS011;68856;45.586;10.264;2023-04-25T11:24:53;0.90;;;0.90;;
79399;SDS011;68856;45.586;10.264;2023-04-25T11:27:20;0.70;;;0.70;;
79399;SDS011;68856;45.586;10.264;2023-04-25T11:29:46;1.30;;;0.90;;
79399;SDS011;68856;45.586;10.264;2023-04-25T11:32:14;1.40;;;0.93;;
79399;SDS011;68856;45.586;10.264;2023-04-25T11:34:42;0.90;;;0.50;;
79399;SDS011;68856;45.586;10.264;2023-04-25T11:37:10;0.40;;;0.40;;
79399;SDS011;68856;45.586;10.264;2023-04-25T11:39:37;0.60;;;0.60;;
79399;SDS011;68856;45.586;10.264;2023-04-25T11:42:08;0.93;;;0.50;;
79399;SDS011;68856;45.586;10.264;2023-04-25T11:44:34;0.50;;;0.50;;
79399;SDS011;68856;45.586;10.264;2023-04-25T11:47:02;0.57;;;0.50;;
79399;SDS011;68856;45.586;10.264;2023-04-25T11:49:31;0.65;;;0.65;;
79399;SDS011;68856;45.586;10.264;2023-04-25T11:51:58;0.80;;;0.80;;
79399;SDS011;68856;45.586;10.264;2023-04-25T11:54:24;0.98;;;0.77;;
79399;SDS011;68856;45.586;10.264;2023-04-25T11:56:51;1.45;;;0.70;;
79399;SDS011;68856;45.586;10.264;2023-04-25T11:59:17;0.90;;;0.90;;
79399;SDS011;68856;45.586;10.264;2023-04-25T12:01:50;0.65;;;0.65;;
79399;SDS011;68856;45.586;10.264;2023-04-25T12:04:25;1.70;;;1.10;;
79399;SDS011;68856;45.586;10.264;2023-04-25T12:06:52;0.85;;;0.85;;
79399;SDS011;68856;45.586;10.264;2023-04-25T12:09:20;0.80;;;0.80;;
79399;SDS011;68856;45.586;10.264;2023-04-25T12:11:55;0.80;;;0.80;;
79399;SDS011;68856;45.586;10.264;2023-04-25T12:14:33;0.57;;;0.57;;
79399;SDS011;68856;45.586;10.264;2023-04-25T12:17:01;0.60;;;0.60;;
79399;SDS011;68856;45.586;10.264;2023-04-25T12:19:32;0.90;;;0.77;;
79399;SDS011;68856;45.586;10.264;2023-04-25T12:22:00;0.63;;;0.63;;
79399;SDS011;68856;45.586;10.264;2023-04-25T12:24:28;1.05;;;0.88;;
79399;SDS011;68856;45.586;10.264;2023-04-25T12:27:03;1.15;;;1.00;;
79399;SDS011;68856;45.586;10.264;2023-04-25T12:29:32;1.65;;;0.90;;
79399;SDS011;68856;45.586;10.264;2023-04-25T12:31:59;1.02;;;1.02;;
79399;SDS011;68856;45.586;10.264;2023-04-25T12:34:26;1.02;;;1.02;;
79399;SDS011;68856;45.586;10.264;2023-04-25T12:36:54;1.80;;;0.90;;
79399;SDS011;68856;45.586;10.264;2023-04-25T12:39:22;0.60;;;0.60;;
79399;SDS011;68856;45.586;10.264;2023-04-25T12:41:49;0.88;;;0.88;;
79399;SDS011;68856;45.586;10.264;2023-04-25T12:44:18;0.75;;;0.75;;
79399;SDS011;68856;45.586;10.264;2023-04-25T12:46:46;0.57;;;0.57;;
79399;SDS011;68856;45.586;10.264;2023-04-25T12:49:13;0.95;;;0.75;;
79399;SDS011;68856;45.586;10.264;2023-04-25T12:51:39;1.95;;;1.02;;
79399;SDS011;68856;45.586;10.264;2023-04-25T12:54:06;2.90;;;1.10;;
79399;SDS011;68856;45.586;10.264;2023-04-25T12:56:33;1.30;;;0.88;;
79399;SDS011;68856;45.586;10.264;2023-04-25T12:59:01;1.15;;;0.77;;
79399;SDS011;68856;45.586;10.264;2023-04-25T13:01:30;1.88;;;1.00;;
79399;SDS011;68856;45.586;10.264;2023-04-25T13:03:57;1.58;;;0.90;;
79399;SDS011;68856;45.586;10.264;2023-04-25T13:06:23;1.90;;;1.00;;
79399;SDS011;68856;45.586;10.264;2023-04-25T13:08:49;1.83;;;1.42;;
79399;SDS011;68856;45.586;10.264;2023-04-25T13:11:15;1.70;;;0.90;;
79399;SDS011;68856;45.586;10.264;2023-04-25T13:13:43;1.60;;;0.85;;
79399;SDS011;68856;45.586;10.264;2023-04-25T13:16:10;1.20;;;1.10;;
79399;SDS011;68856;45.586;10.264;2023-04-25T13:18:39;3.55;;;1.48;;
79399;SDS011;68856;45.586;10.264;2023-04-25T13:21:05;1.95;;;1.65;;
79399;SDS011;68856;45.586;10.264;2023-04-25T13:23:31;1.15;;;1.05;;
79399;SDS011;68856;45.586;10.264;2023-04-25T13:25:59;1.23;;;1.10;;
79399;SDS011;68856;45.586;10.264;2023-04-25T13:28:26;1.25;;;1.20;;
79399;SDS011;68856;45.586;10.264;2023-04-25T13:30:53;1.10;;;1.00;;
79399;SDS011;68856;45.586;10.264;2023-04-25T13:33:19;1.30;;;1.20;;
79399;SDS011;68856;45.586;10.264;2023-04-25T13:35:47;1.30;;;1.20;;
79399;SDS011;68856;45.586;10.264;2023-04-25T13:38:22;2.20;;;2.00;;
79399;SDS011;68856;45.586;10.264;2023-04-25T13:40:50;5.35;;;1.00;;
79399;SDS011;68856;45.586;10.264;2023-04-25T13:43:20;1.20;;;1.10;;
79399;SDS011;68856;45.586;10.264;2023-04-25T13:45:47;1.30;;;1.20;;
79399;SDS011;68856;45.586;10.264;2023-04-25T13:48:14;1.20;;;1.08;;
79399;SDS011;68856;45.586;10.264;2023-04-25T13:50:40;0.52;;;0.52;;
79399;SDS011;68856;45.586;10.264;2023-04-25T13:53:07;1.25;;;0.90;;
79399;SDS011;68856;45.586;10.264;2023-04-25T13:55:34;0.77;;;0.77;;
79399;SDS011;68856;45.586;10.264;2023-04-25T13:58:02;0.80;;;0.80;;
79399;SDS011;68856;45.586;10.264;2023-04-25T14:00:35;2.78;;;1.20;;
79399;SDS011;68856;45.586;10.264;2023-04-25T14:03:03;0.85;;;0.82;;
79399;SDS011;68856;45.586;10.264;2023-04-25T14:05:32;0.63;;;0.60;;
79399;SDS011;68856;45.586;10.264;2023-04-25T14:10:29;1.95;;;1.15;;
79399;SDS011;68856;45.586;10.264;2023-04-25T14:12:56;0.88;;;0.88;;
79399;SDS011;68856;45.586;10.264;2023-04-25T14:15:22;0.93;;;0.88;;
79399;SDS011;68856;45.586;10.264;2023-04-25T14:17:49;0.82;;;0.82;;
79399;SDS011;68856;45.586;10.264;2023-04-25T14:20:15;1.52;;;0.85;;
79399;SDS011;68856;45.586;10.264;2023-04-25T14:22:45;0.73;;;0.73;;
79399;SDS011;68856;45.586;10.264;2023-04-25T14:25:11;0.77;;;0.70;;
79399;SDS011;68856;45.586;10.264;2023-04-25T14:27:38;1.08;;;0.98;;
79399;SDS011;68856;45.586;10.264;2023-04-25T14:30:04;1.33;;;1.02;;
79399;SDS011;68856;45.586;10.264;2023-04-25T14:32:32;0.57;;;0.57;;
79399;SDS011;68856;45.586;10.264;2023-04-25T14:34:58;0.60;;;0.60;;
79399;SDS011;68856;45.586;10.264;2023-04-25T14:37:24;1.30;;;0.90;;
79399;SDS011;68856;45.586;10.264;2023-04-25T14:39:51;0.70;;;0.60;;
79399;SDS011;68856;45.586;10.264;2023-04-25T14:42:17;0.75;;;0.75;;
79399;SDS011;68856;45.586;10.264;2023-04-25T14:44:43;0.80;;;0.80;;